sensor_id;sensor_type;location;lat;lon;timestamp;temperature;humidity
21312;DHT22;18076;52.154;10.570;2023-02-28T00:00:50;-0.60;99.90
21312;DHT22;18076;52.154;10.570;2023-02-28T00:03:16;-0.60;99.90
21312;DHT22;18076;52.154;10.570;2023-02-28T00:05:42;-0.60;99.90
21312;DHT22;18076;52.154;10.570;2023-02-28T00:08:07;-0.60;99.90
21312;DHT22;18076;52.154;10.570;2023-02-28T00:10:33;-0.70;99.90
21312;DHT22;18076;52.154;10.570;2023-02-28T00:13:01;-0.70;99.90
21312;DHT22;18076;52.154;10.570;2023-02-28T00:15:26;-0.70;99.90
21312;DHT22;18076;52.154;10.570;2023-02-28T00:17:52;-0.70;99.90
21312;DHT22;18076;52.154;10.570;2023-02-28T00:20:18;-0.70;99.90
21312;DHT22;18076;52.154;10.570;2023-02-28T00:22:44;-0.60;99.90
21312;DHT22;18076;52.154;10.570;2023-02-28T00:25:11;-0.60;99.90
21312;DHT22;18076;52.154;10.570;2023-02-28T00:27:37;-0.60;99.90
21312;DHT22;18076;52.154;10.570;2023-02-28T00:30:04;-0.60;99.90
21312;DHT22;18076;52.154;10.570;2023-02-28T00:32:30;-0.40;99.90
21312;DHT22;18076;52.154;10.570;2023-02-28T00:34:55;-0.40;99.90
21312;DHT22;18076;52.154;10.570;2023-02-28T00:37:21;-0.30;99.90
21312;DHT22;18076;52.154;10.570;2023-02-28T00:39:46;-0.40;99.90
21312;DHT22;18076;52.154;10.570;2023-02-28T00:42:15;-0.30;99.90
21312;DHT22;18076;52.154;10.570;2023-02-28T00:44:41;-0.30;99.90
21312;DHT22;18076;52.154;10.570;2023-02-28T00:47:06;-0.20;99.90
21312;DHT22;18076;52.154;10.570;2023-02-28T00:49:32;-0.20;99.90
21312;DHT22;18076;52.154;10.570;2023-02-28T00:51:57;-0.20;99.90
21312;DHT22;18076;52.154;10.570;2023-02-28T00:54:23;-0.20;99.90
21312;DHT22;18076;52.154;10.570;2023-02-28T00:56:49;-0.20;99.90
21312;DHT22;18076;52.154;10.570;2023-02-28T00:59:15;-0.20;99.90
21312;DHT22;18076;52.154;10.570;2023-02-28T01:01:41;-0.20;99.90
21312;DHT22;18076;52.154;10.570;2023-02-28T01:04:06;-0.20;99.90
21312;DHT22;18076;52.154;10.570;2023-02-28T01:06:32;-0.30;99.90
21312;DHT22;18076;52.154;10.570;2023-02-28T01:08:58;-0.30;99.90
21312;DHT22;18076;52.154;10.570;2023-02-28T01:11:24;-0.30;99.90
21312;DHT22;18076;52.154;10.570;2023-02-28T01:13:49;-0.30;99.90
21312;DHT22;18076;52.154;10.570;2023-02-28T01:16:15;-0.20;99.90
21312;DHT22;18076;52.154;10.570;2023-02-28T01:18:40;-0.10;99.90
21312;DHT22;18076;52.154;10.570;2023-02-28T01:21:06;-0.10;99.90
21312;DHT22;18076;52.154;10.570;2023-02-28T01:23:32;-0.10;99.90
21312;DHT22;18076;52.154;10.570;2023-02-28T01:26:03;-0.20;99.90
21312;DHT22;18076;52.154;10.570;2023-02-28T01:28:28;-0.10;99.90
21312;DHT22;18076;52.154;10.570;2023-02-28T01:30:55;-0.10;99.90
21312;DHT22;18076;52.154;10.570;2023-02-28T01:33:20;-0.10;99.90
21312;DHT22;18076;52.154;10.570;2023-02-28T01:35:46;0.00;99.90
21312;DHT22;18076;52.154;10.570;2023-02-28T01:38:11;0.00;99.90
21312;DHT22;18076;52.154;10.570;2023-02-28T01:40:37;-0.10;99.90
21312;DHT22;18076;52.154;10.570;2023-02-28T01:43:02;0.00;99.90
21312;DHT22;18076;52.154;10.570;2023-02-28T01:45:28;0.00;99.90
21312;DHT22;18076;52.154;10.570;2023-02-28T01:47:55;-0.10;99.90
21312;DHT22;18076;52.154;10.570;2023-02-28T01:50:24;-0.10;99.90
21312;DHT22;18076;52.154;10.570;2023-02-28T01:52:51;0.00;99.90
21312;DHT22;18076;52.154;10.570;2023-02-28T01:55:18;0.00;99.90
21312;DHT22;18076;52.154;10.570;2023-02-28T01:57:46;0.00;99.90
21312;DHT22;18076;52.154;10.570;2023-02-28T02:00:14;0.00;99.90
21312;DHT22;18076;52.154;10.570;2023-02-28T02:02:43;0.00;99.90
21312;DHT22;18076;52.154;10.570;2023-02-28T02:05:20;-0.10;99.90
21312;DHT22;18076;52.154;10.570;2023-02-28T02:07:48;-0.20;99.90
21312;DHT22;18076;52.154;10.570;2023-02-28T02:10:16;-0.30;99.90
21312;DHT22;18076;52.154;10.570;2023-02-28T02:15:49;-0.40;99.90
21312;DHT22;18076;52.154;10.570;2023-02-28T02:21:11;-0.50;99.90
21312;DHT22;18076;52.154;10.570;2023-02-28T02:34:32;-0.70;99.90
21312;DHT22;18076;52.154;10.570;2023-02-28T02:39:47;-1.00;99.90
21312;DHT22;18076;52.154;10.570;2023-02-28T02:42:15;-1.10;99.90
21312;DHT22;18076;52.154;10.570;2023-02-28T02:44:53;-1.20;99.90
21312;DHT22;18076;52.154;10.570;2023-02-28T02:47:22;-1.10;99.90
21312;DHT22;18076;52.154;10.570;2023-02-28T02:49:50;-1.10;99.90
21312;DHT22;18076;52.154;10.570;2023-02-28T02:52:18;-1.00;99.90
21312;DHT22;18076;52.154;10.570;2023-02-28T02:54:46;-0.90;99.90
21312;DHT22;18076;52.154;10.570;2023-02-28T02:57:15;-0.90;99.90
21312;DHT22;18076;52.154;10.570;2023-02-28T02:59:43;-0.90;99.90
21312;DHT22;18076;52.154;10.570;2023-02-28T03:02:11;-0.80;99.90
21312;DHT22;18076;52.154;10.570;2023-02-28T03:04:39;-0.80;99.90
21312;DHT22;18076;52.154;10.570;2023-02-28T03:07:05;-0.80;99.90
21312;DHT22;18076;52.154;10.570;2023-02-28T03:09:32;-0.80;99.90
21312;DHT22;18076;52.154;10.570;2023-02-28T03:11:58;-0.80;99.90
21312;DHT22;18076;52.154;10.570;2023-02-28T03:21:46;-0.60;99.90
21312;DHT22;18076;52.154;10.570;2023-02-28T03:26:39;-0.50;99.90
21312;DHT22;18076;52.154;10.570;2023-02-28T03:29:10;-0.50;99.90
21312;DHT22;18076;52.154;10.570;2023-02-28T03:34:33;-0.50;99.90
21312;DHT22;18076;52.154;10.570;2023-02-28T03:37:02;-0.50;99.90
21312;DHT22;18076;52.154;10.570;2023-02-28T03:42:09;-0.40;99.90
21312;DHT22;18076;52.154;10.570;2023-02-28T03:44:44;-0.40;99.90
21312;DHT22;18076;52.154;10.570;2023-02-28T03:47:12;-0.40;99.90
21312;DHT22;18076;52.154;10.570;2023-02-28T03:49:45;-0.40;99.90
21312;DHT22;18076;52.154;10.570;2023-02-28T03:52:13;-0.40;99.90
21312;DHT22;18076;52.154;10.570;2023-02-28T03:54:41;-0.40;99.90
21312;DHT22;18076;52.154;10.570;2023-02-28T04:00:14;-0.60;99.90
21312;DHT22;18076;52.154;10.570;2023-02-28T04:02:38;-0.60;99.90
21312;DHT22;18076;52.154;10.570;2023-02-28T04:05:05;-0.50;99.90
21312;DHT22;18076;52.154;10.570;2023-02-28T04:07:30;-0.60;99.90
21312;DHT22;18076;52.154;10.570;2023-02-28T04:09:56;-0.60;99.90
21312;DHT22;18076;52.154;10.570;2023-02-28T04:12:22;-0.50;99.90
21312;DHT22;18076;52.154;10.570;2023-02-28T04:14:48;-0.50;99.90
21312;DHT22;18076;52.154;10.570;2023-02-28T04:17:14;-0.50;99.90
21312;DHT22;18076;52.154;10.570;2023-02-28T04:19:39;-0.60;99.90
21312;DHT22;18076;52.154;10.570;2023-02-28T04:22:05;-0.60;99.90
21312;DHT22;18076;52.154;10.570;2023-02-28T04:24:30;-0.50;99.90
21312;DHT22;18076;52.154;10.570;2023-02-28T04:26:56;-0.50;99.90
21312;DHT22;18076;52.154;10.570;2023-02-28T04:29:24;-0.40;99.90
21312;DHT22;18076;52.154;10.570;2023-02-28T04:31:50;-0.30;99.90
21312;DHT22;18076;52.154;10.570;2023-02-28T04:34:15;-0.20;99.90
21312;DHT22;18076;52.154;10.570;2023-02-28T04:36:41;-0.30;99.90
21312;DHT22;18076;52.154;10.570;2023-02-28T04:39:07;-0.20;99.90
21312;DHT22;18076;52.154;10.570;2023-02-28T04:41:33;-0.20;99.90
21312;DHT22;18076;52.154;10.570;2023-02-28T04:43:58;-0.20;99.90
21312;DHT22;18076;52.154;10.570;2023-02-28T04:46:27;-0.30;99.90
21312;DHT22;18076;52.154;10.570;2023-02-28T04:48:52;-0.30;99.90
21312;DHT22;18076;52.154;10.570;2023-02-28T04:51:19;-0.30;99.90
21312;DHT22;18076;52.154;10.570;2023-02-28T04:53:45;-0.20;99.90
21312;DHT22;18076;52.154;10.570;2023-02-28T04:56:14;-0.20;99.90
21312;DHT22;18076;52.154;10.570;2023-02-28T04:58:41;-0.10;99.90
21312;DHT22;18076;52.154;10.570;2023-02-28T05:01:14;-0.10;99.90
21312;DHT22;18076;52.154;10.570;2023-02-28T05:03:41;-0.10;99.90
21312;DHT22;18076;52.154;10.570;2023-02-28T05:06:07;-0.10;99.90
21312;DHT22;18076;52.154;10.570;2023-02-28T05:08:33;-0.10;99.90
21312;DHT22;18076;52.154;10.570;2023-02-28T05:10:59;-0.10;99.90
21312;DHT22;18076;52.154;10.570;2023-02-28T05:13:26;-0.10;99.90
21312;DHT22;18076;52.154;10.570;2023-02-28T05:15:52;-0.10;99.90
21312;DHT22;18076;52.154;10.570;2023-02-28T05:18:18;-0.10;99.90
21312;DHT22;18076;52.154;10.570;2023-02-28T05:20:43;-0.10;99.90
21312;DHT22;18076;52.154;10.570;2023-02-28T05:23:11;-0.10;99.90
21312;DHT22;18076;52.154;10.570;2023-02-28T05:25:36;-0.10;99.90
21312;DHT22;18076;52.154;10.570;2023-02-28T05:28:02;-0.10;99.90
21312;DHT22;18076;52.154;10.570;2023-02-28T05:30:27;-0.10;99.90
21312;DHT22;18076;52.154;10.570;2023-02-28T05:32:53;-0.10;99.90
21312;DHT22;18076;52.154;10.570;2023-02-28T05:35:18;-0.10;99.90
21312;DHT22;18076;52.154;10.570;2023-02-28T05:37:44;-0.10;99.90
21312;DHT22;18076;52.154;10.570;2023-02-28T05:40:09;-0.10;99.90
21312;DHT22;18076;52.154;10.570;2023-02-28T05:42:36;-0.10;99.90
21312;DHT22;18076;52.154;10.570;2023-02-28T05:45:01;-0.10;99.90
21312;DHT22;18076;52.154;10.570;2023-02-28T05:47:27;-0.10;99.90
21312;DHT22;18076;52.154;10.570;2023-02-28T05:49:52;-0.10;99.90
21312;DHT22;18076;52.154;10.570;2023-02-28T05:52:18;0.00;99.90
21312;DHT22;18076;52.154;10.570;2023-02-28T05:54:43;0.00;99.90
21312;DHT22;18076;52.154;10.570;2023-02-28T05:57:11;0.00;99.90
21312;DHT22;18076;52.154;10.570;2023-02-28T05:59:36;0.00;99.90
21312;DHT22;18076;52.154;10.570;2023-02-28T06:02:14;-0.10;99.90
21312;DHT22;18076;52.154;10.570;2023-02-28T06:04:40;-0.10;99.90
21312;DHT22;18076;52.154;10.570;2023-02-28T06:07:07;-0.10;99.90
21312;DHT22;18076;52.154;10.570;2023-02-28T06:09:33;-0.10;99.90
21312;DHT22;18076;52.154;10.570;2023-02-28T06:11:59;-0.10;99.90
21312;DHT22;18076;52.154;10.570;2023-02-28T06:14:25;-0.10;99.90
21312;DHT22;18076;52.154;10.570;2023-02-28T06:16:50;-0.10;99.90
21312;DHT22;18076;52.154;10.570;2023-02-28T06:19:16;-0.10;99.90
21312;DHT22;18076;52.154;10.570;2023-02-28T06:21:41;-0.10;99.90
21312;DHT22;18076;52.154;10.570;2023-02-28T06:24:07;-0.10;99.90
21312;DHT22;18076;52.154;10.570;2023-02-28T06:26:33;-0.10;99.90
21312;DHT22;18076;52.154;10.570;2023-02-28T06:28:58;-0.10;99.90
21312;DHT22;18076;52.154;10.570;2023-02-28T06:31:25;0.00;99.90
21312;DHT22;18076;52.154;10.570;2023-02-28T06:33:51;0.10;99.90
21312;DHT22;18076;52.154;10.570;2023-02-28T06:36:17;0.30;99.90
21312;DHT22;18076;52.154;10.570;2023-02-28T06:38:47;0.30;99.90
21312;DHT22;18076;52.154;10.570;2023-02-28T06:41:22;0.20;99.90
21312;DHT22;18076;52.154;10.570;2023-02-28T06:43:48;0.20;99.90
21312;DHT22;18076;52.154;10.570;2023-02-28T06:46:13;0.30;99.90
21312;DHT22;18076;52.154;10.570;2023-02-28T06:48:45;0.50;99.90
21312;DHT22;18076;52.154;10.570;2023-02-28T06:51:15;0.50;99.90
21312;DHT22;18076;52.154;10.570;2023-02-28T06:53:41;0.50;99.90
21312;DHT22;18076;52.154;10.570;2023-02-28T06:56:07;0.50;99.90
21312;DHT22;18076;52.154;10.570;2023-02-28T06:58:34;0.50;99.90
21312;DHT22;18076;52.154;10.570;2023-02-28T07:00:59;0.60;99.90
21312;DHT22;18076;52.154;10.570;2023-02-28T07:03:25;0.60;99.90
21312;DHT22;18076;52.154;10.570;2023-02-28T07:05:51;0.70;99.90
21312;DHT22;18076;52.154;10.570;2023-02-28T07:08:16;0.80;99.90
21312;DHT22;18076;52.154;10.570;2023-02-28T07:10:42;0.80;99.90
21312;DHT22;18076;52.154;10.570;2023-02-28T07:13:08;0.80;99.90
21312;DHT22;18076;52.154;10.570;2023-02-28T07:15:34;0.80;99.90
21312;DHT22;18076;52.154;10.570;2023-02-28T07:18:00;0.80;99.90
21312;DHT22;18076;52.154;10.570;2023-02-28T07:20:25;0.80;99.90
21312;DHT22;18076;52.154;10.570;2023-02-28T07:22:51;0.80;99.90
21312;DHT22;18076;52.154;10.570;2023-02-28T07:25:22;0.90;99.90
21312;DHT22;18076;52.154;10.570;2023-02-28T07:27:47;1.00;99.90
21312;DHT22;18076;52.154;10.570;2023-02-28T07:30:13;1.10;99.90
21312;DHT22;18076;52.154;10.570;2023-02-28T07:32:39;1.30;99.90
21312;DHT22;18076;52.154;10.570;2023-02-28T07:35:04;1.40;99.90
21312;DHT22;18076;52.154;10.570;2023-02-28T07:37:30;1.50;99.90
21312;DHT22;18076;52.154;10.570;2023-02-28T07:39:56;1.60;99.90
21312;DHT22;18076;52.154;10.570;2023-02-28T07:42:22;1.60;99.90
21312;DHT22;18076;52.154;10.570;2023-02-28T07:44:48;1.70;99.90
21312;DHT22;18076;52.154;10.570;2023-02-28T07:47:13;1.70;99.90
21312;DHT22;18076;52.154;10.570;2023-02-28T07:49:39;1.70;99.90
21312;DHT22;18076;52.154;10.570;2023-02-28T07:52:07;1.60;99.90
21312;DHT22;18076;52.154;10.570;2023-02-28T07:54:33;1.60;99.90
21312;DHT22;18076;52.154;10.570;2023-02-28T07:56:59;1.70;99.90
21312;DHT22;18076;52.154;10.570;2023-02-28T07:59:24;1.70;99.90
21312;DHT22;18076;52.154;10.570;2023-02-28T08:01:50;1.80;99.90
21312;DHT22;18076;52.154;10.570;2023-02-28T08:04:16;2.00;99.90
21312;DHT22;18076;52.154;10.570;2023-02-28T08:06:42;3.60;99.90
21312;DHT22;18076;52.154;10.570;2023-02-28T08:09:07;5.70;99.90
21312;DHT22;18076;52.154;10.570;2023-02-28T08:11:33;7.50;99.90
21312;DHT22;18076;52.154;10.570;2023-02-28T08:13:59;8.90;99.90
21312;DHT22;18076;52.154;10.570;2023-02-28T08:16:24;10.00;99.90
21312;DHT22;18076;52.154;10.570;2023-02-28T08:18:53;10.60;99.90
21312;DHT22;18076;52.154;10.570;2023-02-28T08:21:19;11.00;99.90
21312;DHT22;18076;52.154;10.570;2023-02-28T08:23:48;11.20;99.90
21312;DHT22;18076;52.154;10.570;2023-02-28T08:26:14;11.40;99.90
21312;DHT22;18076;52.154;10.570;2023-02-28T08:28:40;11.50;99.90
21312;DHT22;18076;52.154;10.570;2023-02-28T08:31:09;11.20;99.90
21312;DHT22;18076;52.154;10.570;2023-02-28T08:33:35;11.40;99.90
21312;DHT22;18076;52.154;10.570;2023-02-28T08:36:01;11.00;99.90
21312;DHT22;18076;52.154;10.570;2023-02-28T08:38:26;11.30;99.90
21312;DHT22;18076;52.154;10.570;2023-02-28T08:40:59;11.50;99.90
21312;DHT22;18076;52.154;10.570;2023-02-28T08:43:25;11.10;99.90
21312;DHT22;18076;52.154;10.570;2023-02-28T08:45:51;11.10;99.90
21312;DHT22;18076;52.154;10.570;2023-02-28T08:48:17;10.50;99.90
21312;DHT22;18076;52.154;10.570;2023-02-28T08:50:42;10.20;99.90
21312;DHT22;18076;52.154;10.570;2023-02-28T08:53:08;10.70;99.90
21312;DHT22;18076;52.154;10.570;2023-02-28T08:55:33;10.70;99.90
21312;DHT22;18076;52.154;10.570;2023-02-28T08:57:59;10.50;99.90
21312;DHT22;18076;52.154;10.570;2023-02-28T09:00:26;10.50;99.90
21312;DHT22;18076;52.154;10.570;2023-02-28T09:02:52;11.00;99.90
21312;DHT22;18076;52.154;10.570;2023-02-28T09:05:17;11.30;99.90
21312;DHT22;18076;52.154;10.570;2023-02-28T09:07:43;11.20;99.90
21312;DHT22;18076;52.154;10.570;2023-02-28T09:10:09;11.00;99.90
21312;DHT22;18076;52.154;10.570;2023-02-28T09:12:37;10.60;99.90
21312;DHT22;18076;52.154;10.570;2023-02-28T09:15:03;10.20;99.90
21312;DHT22;18076;52.154;10.570;2023-02-28T09:17:29;10.30;99.90
21312;DHT22;18076;52.154;10.570;2023-02-28T09:19:54;10.40;99.90
21312;DHT22;18076;52.154;10.570;2023-02-28T09:22:23;10.40;99.90
21312;DHT22;18076;52.154;10.570;2023-02-28T09:24:49;11.00;99.90
21312;DHT22;18076;52.154;10.570;2023-02-28T09:27:14;10.70;99.90
21312;DHT22;18076;52.154;10.570;2023-02-28T09:29:40;10.50;99.90
21312;DHT22;18076;52.154;10.570;2023-02-28T09:32:05;10.70;99.90
21312;DHT22;18076;52.154;10.570;2023-02-28T09:34:33;11.20;99.90
21312;DHT22;18076;52.154;10.570;2023-02-28T09:36:58;11.50;99.90
21312;DHT22;18076;52.154;10.570;2023-02-28T09:39:24;11.60;99.90
21312;DHT22;18076;52.154;10.570;2023-02-28T09:41:52;11.30;99.90
21312;DHT22;18076;52.154;10.570;2023-02-28T09:44:26;11.40;99.90
21312;DHT22;18076;52.154;10.570;2023-02-28T09:46:59;11.50;99.40
21312;DHT22;18076;52.154;10.570;2023-02-28T09:49:28;11.30;99.00
21312;DHT22;18076;52.154;10.570;2023-02-28T09:52:04;11.40;99.40
21312;DHT22;18076;52.154;10.570;2023-02-28T09:54:34;11.20;98.20
21312;DHT22;18076;52.154;10.570;2023-02-28T09:57:13;10.50;98.00
21312;DHT22;18076;52.154;10.570;2023-02-28T10:04:46;10.20;98.30
21312;DHT22;18076;52.154;10.570;2023-02-28T10:09:55;10.70;98.60
21312;DHT22;18076;52.154;10.570;2023-02-28T10:12:22;11.10;98.20
21312;DHT22;18076;52.154;10.570;2023-02-28T10:14:50;11.10;97.50
21312;DHT22;18076;52.154;10.570;2023-02-28T10:17:18;11.00;97.00
21312;DHT22;18076;52.154;10.570;2023-02-28T10:24:46;11.20;93.90
21312;DHT22;18076;52.154;10.570;2023-02-28T10:27:14;11.00;92.60
21312;DHT22;18076;52.154;10.570;2023-02-28T10:29:40;10.80;93.50
21312;DHT22;18076;52.154;10.570;2023-02-28T10:32:08;11.00;94.30
21312;DHT22;18076;52.154;10.570;2023-02-28T10:34:34;11.30;93.90
21312;DHT22;18076;52.154;10.570;2023-02-28T10:37:00;11.60;91.10
21312;DHT22;18076;52.154;10.570;2023-02-28T10:39:42;10.70;91.40
21312;DHT22;18076;52.154;10.570;2023-02-28T10:42:19;10.80;91.60
21312;DHT22;18076;52.154;10.570;2023-02-28T10:44:45;10.60;90.80
21312;DHT22;18076;52.154;10.570;2023-02-28T10:47:14;10.50;91.70
21312;DHT22;18076;52.154;10.570;2023-02-28T10:49:46;10.40;92.20
21312;DHT22;18076;52.154;10.570;2023-02-28T10:52:12;10.70;91.50
21312;DHT22;18076;52.154;10.570;2023-02-28T10:54:38;10.90;90.90
21312;DHT22;18076;52.154;10.570;2023-02-28T10:57:08;10.90;90.00
21312;DHT22;18076;52.154;10.570;2023-02-28T10:59:34;10.80;89.90
21312;DHT22;18076;52.154;10.570;2023-02-28T11:02:00;10.40;89.80
21312;DHT22;18076;52.154;10.570;2023-02-28T11:09:34;10.80;89.50
21312;DHT22;18076;52.154;10.570;2023-02-28T11:12:01;11.20;89.00
21312;DHT22;18076;52.154;10.570;2023-02-28T11:14:27;10.70;88.00
21312;DHT22;18076;52.154;10.570;2023-02-28T11:16:53;10.70;89.50
21312;DHT22;18076;52.154;10.570;2023-02-28T11:19:20;11.00;89.50
21312;DHT22;18076;52.154;10.570;2023-02-28T11:21:51;10.80;88.20
21312;DHT22;18076;52.154;10.570;2023-02-28T11:24:28;10.50;87.30
21312;DHT22;18076;52.154;10.570;2023-02-28T11:26:54;10.30;86.60
21312;DHT22;18076;52.154;10.570;2023-02-28T11:29:24;10.30;87.80
21312;DHT22;18076;52.154;10.570;2023-02-28T11:34:34;9.90;87.90
21312;DHT22;18076;52.154;10.570;2023-02-28T11:37:00;9.80;89.60
21312;DHT22;18076;52.154;10.570;2023-02-28T11:39:26;10.40;89.00
21312;DHT22;18076;52.154;10.570;2023-02-28T11:42:07;10.20;89.20
21312;DHT22;18076;52.154;10.570;2023-02-28T11:52:29;9.60;88.90
21312;DHT22;18076;52.154;10.570;2023-02-28T12:07:50;10.60;88.70
21312;DHT22;18076;52.154;10.570;2023-02-28T12:10:25;10.80;87.90
21312;DHT22;18076;52.154;10.570;2023-02-28T12:15:25;10.60;88.50
21312;DHT22;18076;52.154;10.570;2023-02-28T12:27:57;10.80;87.50
21312;DHT22;18076;52.154;10.570;2023-02-28T12:30:34;11.30;87.00
21312;DHT22;18076;52.154;10.570;2023-02-28T12:33:12;11.40;87.30
21312;DHT22;18076;52.154;10.570;2023-02-28T12:35:41;11.40;86.20
21312;DHT22;18076;52.154;10.570;2023-02-28T12:38:12;10.70;83.60
21312;DHT22;18076;52.154;10.570;2023-02-28T12:40:51;9.70;84.60
21312;DHT22;18076;52.154;10.570;2023-02-28T12:43:18;9.10;85.90
21312;DHT22;18076;52.154;10.570;2023-02-28T12:45:51;8.90;87.20
21312;DHT22;18076;52.154;10.570;2023-02-28T12:48:24;9.10;88.60
21312;DHT22;18076;52.154;10.570;2023-02-28T12:50:51;8.80;88.20
21312;DHT22;18076;52.154;10.570;2023-02-28T13:11:43;9.30;90.50
21312;DHT22;18076;52.154;10.570;2023-02-28T13:14:42;9.30;89.70
21312;DHT22;18076;52.154;10.570;2023-02-28T13:19:33;9.90;88.20
21312;DHT22;18076;52.154;10.570;2023-02-28T13:22:05;9.60;87.40
21312;DHT22;18076;52.154;10.570;2023-02-28T13:24:50;9.70;88.20
21312;DHT22;18076;52.154;10.570;2023-02-28T13:27:38;9.80;87.80
21312;DHT22;18076;52.154;10.570;2023-02-28T13:33:05;10.00;88.80
21312;DHT22;18076;52.154;10.570;2023-02-28T13:35:36;10.40;88.40
21312;DHT22;18076;52.154;10.570;2023-02-28T13:38:21;10.60;86.90
21312;DHT22;18076;52.154;10.570;2023-02-28T13:40:47;10.40;85.60
21312;DHT22;18076;52.154;10.570;2023-02-28T13:43:13;10.30;85.00
21312;DHT22;18076;52.154;10.570;2023-02-28T13:45:45;10.30;85.60
21312;DHT22;18076;52.154;10.570;2023-02-28T13:48:27;10.10;86.40
21312;DHT22;18076;52.154;10.570;2023-02-28T13:50:54;10.10;87.40
21312;DHT22;18076;52.154;10.570;2023-02-28T13:53:26;9.90;86.20
21312;DHT22;18076;52.154;10.570;2023-02-28T14:01:22;9.70;87.10
21312;DHT22;18076;52.154;10.570;2023-02-28T14:06:36;10.00;88.60
21312;DHT22;18076;52.154;10.570;2023-02-28T14:11:33;10.60;87.50
21312;DHT22;18076;52.154;10.570;2023-02-28T14:13:59;10.70;87.10
21312;DHT22;18076;52.154;10.570;2023-02-28T14:16:26;10.70;86.60
21312;DHT22;18076;52.154;10.570;2023-02-28T14:36:52;9.30;87.60
21312;DHT22;18076;52.154;10.570;2023-02-28T14:39:15;8.90;87.80
21312;DHT22;18076;52.154;10.570;2023-02-28T14:41:42;8.90;90.20
21312;DHT22;18076;52.154;10.570;2023-02-28T14:44:24;8.90;89.70
21312;DHT22;18076;52.154;10.570;2023-02-28T14:46:52;8.70;89.80
21312;DHT22;18076;52.154;10.570;2023-02-28T14:51:48;8.20;90.20
21312;DHT22;18076;52.154;10.570;2023-02-28T14:54:16;8.10;90.70
21312;DHT22;18076;52.154;10.570;2023-02-28T14:56:48;8.20;91.00
21312;DHT22;18076;52.154;10.570;2023-02-28T14:59:24;8.30;91.20
21312;DHT22;18076;52.154;10.570;2023-02-28T15:01:50;8.20;91.00
21312;DHT22;18076;52.154;10.570;2023-02-28T15:04:21;8.00;91.40
21312;DHT22;18076;52.154;10.570;2023-02-28T15:07:06;8.00;91.40
21312;DHT22;18076;52.154;10.570;2023-02-28T15:09:32;7.90;91.40
21312;DHT22;18076;52.154;10.570;2023-02-28T15:11:58;7.80;91.00
21312;DHT22;18076;52.154;10.570;2023-02-28T15:14:23;7.70;91.10
21312;DHT22;18076;52.154;10.570;2023-02-28T15:16:51;7.70;91.40
21312;DHT22;18076;52.154;10.570;2023-02-28T15:19:25;7.50;91.20
21312;DHT22;18076;52.154;10.570;2023-02-28T15:22:34;7.30;91.60
21312;DHT22;18076;52.154;10.570;2023-02-28T15:24:42;7.10;92.00
21312;DHT22;18076;52.154;10.570;2023-02-28T15:27:15;7.10;92.10
21312;DHT22;18076;52.154;10.570;2023-02-28T15:29:46;7.20;92.40
21312;DHT22;18076;52.154;10.570;2023-02-28T15:34:50;7.10;92.60
21312;DHT22;18076;52.154;10.570;2023-02-28T15:40:11;7.00;93.60
21312;DHT22;18076;52.154;10.570;2023-02-28T15:42:38;7.10;93.20
21312;DHT22;18076;52.154;10.570;2023-02-28T15:45:03;7.10;92.70
21312;DHT22;18076;52.154;10.570;2023-02-28T15:47:29;7.00;93.00
21312;DHT22;18076;52.154;10.570;2023-02-28T15:50:00;6.90;92.90
21312;DHT22;18076;52.154;10.570;2023-02-28T15:54:51;6.60;92.70
21312;DHT22;18076;52.154;10.570;2023-02-28T15:57:18;6.50;93.10
21312;DHT22;18076;52.154;10.570;2023-02-28T15:59:49;6.40;93.70
21312;DHT22;18076;52.154;10.570;2023-02-28T16:02:17;6.40;93.90
21312;DHT22;18076;52.154;10.570;2023-02-28T16:07:26;6.30;94.50
21312;DHT22;18076;52.154;10.570;2023-02-28T16:09:52;6.30;94.30
21312;DHT22;18076;52.154;10.570;2023-02-28T16:12:18;6.30;95.00
21312;DHT22;18076;52.154;10.570;2023-02-28T16:14:44;6.40;95.00
21312;DHT22;18076;52.154;10.570;2023-02-28T16:17:20;6.50;95.00
21312;DHT22;18076;52.154;10.570;2023-02-28T16:19:46;6.50;95.20
21312;DHT22;18076;52.154;10.570;2023-02-28T16:22:12;6.50;95.10
21312;DHT22;18076;52.154;10.570;2023-02-28T16:24:37;6.40;95.40
21312;DHT22;18076;52.154;10.570;2023-02-28T16:27:04;6.30;95.70
21312;DHT22;18076;52.154;10.570;2023-02-28T16:29:31;6.20;96.00
21312;DHT22;18076;52.154;10.570;2023-02-28T16:31:57;6.20;96.00
21312;DHT22;18076;52.154;10.570;2023-02-28T16:34:23;6.00;96.30
21312;DHT22;18076;52.154;10.570;2023-02-28T16:36:48;6.00;97.00
21312;DHT22;18076;52.154;10.570;2023-02-28T16:39:14;5.90;97.60
21312;DHT22;18076;52.154;10.570;2023-02-28T16:41:41;5.90;98.20
21312;DHT22;18076;52.154;10.570;2023-02-28T16:44:21;5.90;98.50
21312;DHT22;18076;52.154;10.570;2023-02-28T16:46:49;5.80;98.80
21312;DHT22;18076;52.154;10.570;2023-02-28T16:49:15;5.70;99.20
21312;DHT22;18076;52.154;10.570;2023-02-28T16:51:40;5.60;99.50
21312;DHT22;18076;52.154;10.570;2023-02-28T16:54:06;5.50;99.60
21312;DHT22;18076;52.154;10.570;2023-02-28T16:56:31;5.40;99.90
21312;DHT22;18076;52.154;10.570;2023-02-28T16:58:59;5.20;99.90
21312;DHT22;18076;52.154;10.570;2023-02-28T17:01:26;5.10;99.90
21312;DHT22;18076;52.154;10.570;2023-02-28T17:03:52;5.10;99.90
21312;DHT22;18076;52.154;10.570;2023-02-28T17:06:25;4.90;99.90
21312;DHT22;18076;52.154;10.570;2023-02-28T17:08:53;4.80;99.90
21312;DHT22;18076;52.154;10.570;2023-02-28T17:11:19;4.80;99.90
21312;DHT22;18076;52.154;10.570;2023-02-28T17:13:44;4.70;99.90
21312;DHT22;18076;52.154;10.570;2023-02-28T17:16:32;4.60;99.90
21312;DHT22;18076;52.154;10.570;2023-02-28T17:19:01;4.60;99.90
21312;DHT22;18076;52.154;10.570;2023-02-28T17:21:27;4.50;99.90
21312;DHT22;18076;52.154;10.570;2023-02-28T17:23:53;4.40;99.90
21312;DHT22;18076;52.154;10.570;2023-02-28T17:26:19;4.30;99.90
21312;DHT22;18076;52.154;10.570;2023-02-28T17:28:46;4.20;99.90
21312;DHT22;18076;52.154;10.570;2023-02-28T17:31:12;4.10;99.90
21312;DHT22;18076;52.154;10.570;2023-02-28T17:33:37;4.00;99.90
21312;DHT22;18076;52.154;10.570;2023-02-28T17:36:03;3.90;99.90
21312;DHT22;18076;52.154;10.570;2023-02-28T17:38:29;3.80;99.90
21312;DHT22;18076;52.154;10.570;2023-02-28T17:40:54;3.60;99.90
21312;DHT22;18076;52.154;10.570;2023-02-28T17:43:25;3.70;99.90
21312;DHT22;18076;52.154;10.570;2023-02-28T17:45:51;3.60;99.90
21312;DHT22;18076;52.154;10.570;2023-02-28T17:48:17;3.60;99.90
21312;DHT22;18076;52.154;10.570;2023-02-28T17:50:43;3.50;99.90
21312;DHT22;18076;52.154;10.570;2023-02-28T17:53:08;3.50;99.90
21312;DHT22;18076;52.154;10.570;2023-02-28T17:55:34;3.50;99.90
21312;DHT22;18076;52.154;10.570;2023-02-28T17:58:00;3.40;99.90
21312;DHT22;18076;52.154;10.570;2023-02-28T18:00:25;3.40;99.90
21312;DHT22;18076;52.154;10.570;2023-02-28T18:02:51;3.40;99.90